sensor_id;sensor_type;location;lat;lon;timestamp;temperature;humidity
13256;DHT22;37913;48.370;10.930;2023-02-15T00:01:32;-1.20;99.90
13256;DHT22;37913;48.370;10.930;2023-02-15T00:03:59;-1.40;99.90
13256;DHT22;37913;48.370;10.930;2023-02-15T00:06:26;-1.40;99.90
13256;DHT22;37913;48.370;10.930;2023-02-15T00:08:55;-1.40;99.90
13256;DHT22;37913;48.370;10.930;2023-02-15T00:11:22;-1.30;99.90
13256;DHT22;37913;48.370;10.930;2023-02-15T00:14:03;-1.50;99.90
13256;DHT22;37913;48.370;10.930;2023-02-15T00:16:30;-1.50;99.90
13256;DHT22;37913;48.370;10.930;2023-02-15T00:18:57;-1.50;99.90
13256;DHT22;37913;48.370;10.930;2023-02-15T00:21:27;-1.40;99.90
13256;DHT22;37913;48.370;10.930;2023-02-15T00:23:55;-1.30;99.90
13256;DHT22;37913;48.370;10.930;2023-02-15T00:26:23;-1.40;99.90
13256;DHT22;37913;48.370;10.930;2023-02-15T00:28:51;-1.50;99.90
13256;DHT22;37913;48.370;10.930;2023-02-15T00:31:18;-1.50;99.90
13256;DHT22;37913;48.370;10.930;2023-02-15T00:33:45;-1.70;99.90
13256;DHT22;37913;48.370;10.930;2023-02-15T00:36:12;-1.70;99.90
13256;DHT22;37913;48.370;10.930;2023-02-15T00:38:39;-1.70;99.90
13256;DHT22;37913;48.370;10.930;2023-02-15T00:41:08;-1.70;99.90
13256;DHT22;37913;48.370;10.930;2023-02-15T00:43:35;-1.70;99.90
13256;DHT22;37913;48.370;10.930;2023-02-15T00:46:03;-1.60;99.90
13256;DHT22;37913;48.370;10.930;2023-02-15T00:48:30;-1.70;99.90
13256;DHT22;37913;48.370;10.930;2023-02-15T00:50:59;-1.80;99.90
13256;DHT22;37913;48.370;10.930;2023-02-15T00:53:27;-1.70;99.90
13256;DHT22;37913;48.370;10.930;2023-02-15T00:55:55;-1.70;99.90
13256;DHT22;37913;48.370;10.930;2023-02-15T00:58:23;-1.20;99.90
13256;DHT22;37913;48.370;10.930;2023-02-15T01:00:51;-1.70;99.90
13256;DHT22;37913;48.370;10.930;2023-02-15T01:03:19;-1.70;99.90
13256;DHT22;37913;48.370;10.930;2023-02-15T01:05:48;-0.80;99.90
13256;DHT22;37913;48.370;10.930;2023-02-15T01:08:16;-1.30;99.90
13256;DHT22;37913;48.370;10.930;2023-02-15T01:10:42;-1.70;99.90
13256;DHT22;37913;48.370;10.930;2023-02-15T01:13:13;-0.70;99.90
13256;DHT22;37913;48.370;10.930;2023-02-15T01:15:41;-1.80;99.90
13256;DHT22;37913;48.370;10.930;2023-02-15T01:18:08;-0.70;99.90
13256;DHT22;37913;48.370;10.930;2023-02-15T01:20:36;-1.80;99.90
13256;DHT22;37913;48.370;10.930;2023-02-15T01:23:06;-1.80;99.90
13256;DHT22;37913;48.370;10.930;2023-02-15T01:25:34;-1.50;99.90
13256;DHT22;37913;48.370;10.930;2023-02-15T01:28:02;-1.80;99.90
13256;DHT22;37913;48.370;10.930;2023-02-15T01:30:29;-1.90;99.90
13256;DHT22;37913;48.370;10.930;2023-02-15T01:32:57;-1.80;99.90
13256;DHT22;37913;48.370;10.930;2023-02-15T01:35:26;-1.50;99.90
13256;DHT22;37913;48.370;10.930;2023-02-15T01:37:54;-1.80;99.90
13256;DHT22;37913;48.370;10.930;2023-02-15T01:40:21;-1.10;99.90
13256;DHT22;37913;48.370;10.930;2023-02-15T01:42:50;-1.70;99.90
13256;DHT22;37913;48.370;10.930;2023-02-15T01:45:22;-1.50;99.90
13256;DHT22;37913;48.370;10.930;2023-02-15T01:47:52;-1.10;99.90
13256;DHT22;37913;48.370;10.930;2023-02-15T01:50:28;-1.30;99.90
13256;DHT22;37913;48.370;10.930;2023-02-15T01:53:01;-1.80;99.90
13256;DHT22;37913;48.370;10.930;2023-02-15T01:55:31;-1.70;99.90
13256;DHT22;37913;48.370;10.930;2023-02-15T01:57:59;-1.70;99.90
13256;DHT22;37913;48.370;10.930;2023-02-15T02:00:27;-1.60;99.90
13256;DHT22;37913;48.370;10.930;2023-02-15T02:02:55;-1.60;99.90
13256;DHT22;37913;48.370;10.930;2023-02-15T02:05:25;-1.60;99.90
13256;DHT22;37913;48.370;10.930;2023-02-15T02:07:54;-1.60;99.90
13256;DHT22;37913;48.370;10.930;2023-02-15T02:10:25;-1.40;99.90
13256;DHT22;37913;48.370;10.930;2023-02-15T02:12:55;-1.60;99.90
13256;DHT22;37913;48.370;10.930;2023-02-15T02:15:29;-1.50;99.90
13256;DHT22;37913;48.370;10.930;2023-02-15T02:18:07;-1.50;99.90
13256;DHT22;37913;48.370;10.930;2023-02-15T02:20:59;-1.50;99.90
13256;DHT22;37913;48.370;10.930;2023-02-15T02:23:43;-1.60;99.90
13256;DHT22;37913;48.370;10.930;2023-02-15T02:26:42;-1.60;99.90
13256;DHT22;37913;48.370;10.930;2023-02-15T02:29:39;-1.60;99.90
13256;DHT22;37913;48.370;10.930;2023-02-15T02:35:17;-1.70;99.90
13256;DHT22;37913;48.370;10.930;2023-02-15T02:37:50;-1.60;99.90
13256;DHT22;37913;48.370;10.930;2023-02-15T02:40:28;-1.50;99.90
13256;DHT22;37913;48.370;10.930;2023-02-15T02:43:01;-1.50;99.90
13256;DHT22;37913;48.370;10.930;2023-02-15T02:45:38;-1.00;99.90
13256;DHT22;37913;48.370;10.930;2023-02-15T02:48:12;-1.10;99.90
13256;DHT22;37913;48.370;10.930;2023-02-15T02:50:41;-0.80;99.90
13256;DHT22;37913;48.370;10.930;2023-02-15T02:53:09;-1.50;99.90
13256;DHT22;37913;48.370;10.930;2023-02-15T02:55:39;-1.40;99.90
13256;DHT22;37913;48.370;10.930;2023-02-15T02:58:11;-1.40;99.90
13256;DHT22;37913;48.370;10.930;2023-02-15T03:00:43;-0.50;99.90
13256;DHT22;37913;48.370;10.930;2023-02-15T03:03:13;-1.20;99.90
13256;DHT22;37913;48.370;10.930;2023-02-15T03:05:44;-1.60;99.90
13256;DHT22;37913;48.370;10.930;2023-02-15T03:08:14;-1.70;99.90
13256;DHT22;37913;48.370;10.930;2023-02-15T03:10:48;-1.70;99.90
13256;DHT22;37913;48.370;10.930;2023-02-15T03:13:15;-1.80;99.90
13256;DHT22;37913;48.370;10.930;2023-02-15T03:15:44;-1.70;99.90
13256;DHT22;37913;48.370;10.930;2023-02-15T03:18:35;-0.90;99.90
13256;DHT22;37913;48.370;10.930;2023-02-15T03:21:05;-1.70;99.90
13256;DHT22;37913;48.370;10.930;2023-02-15T03:23:35;-1.70;99.90
13256;DHT22;37913;48.370;10.930;2023-02-15T03:26:05;-0.40;99.90
13256;DHT22;37913;48.370;10.930;2023-02-15T03:28:37;-1.50;99.90
13256;DHT22;37913;48.370;10.930;2023-02-15T03:31:07;-1.80;99.90
13256;DHT22;37913;48.370;10.930;2023-02-15T03:33:36;-1.80;99.90
13256;DHT22;37913;48.370;10.930;2023-02-15T03:36:11;-1.60;99.90
13256;DHT22;37913;48.370;10.930;2023-02-15T03:38:48;-1.80;99.90
13256;DHT22;37913;48.370;10.930;2023-02-15T03:41:18;-1.80;99.90
13256;DHT22;37913;48.370;10.930;2023-02-15T03:43:51;-1.70;99.90
13256;DHT22;37913;48.370;10.930;2023-02-15T03:46:23;-1.80;99.90
13256;DHT22;37913;48.370;10.930;2023-02-15T03:48:53;-1.80;99.90
13256;DHT22;37913;48.370;10.930;2023-02-15T03:51:25;-1.90;99.90
13256;DHT22;37913;48.370;10.930;2023-02-15T03:54:06;-2.00;99.90
13256;DHT22;37913;48.370;10.930;2023-02-15T03:56:36;-2.00;99.90
13256;DHT22;37913;48.370;10.930;2023-02-15T03:59:03;0.60;99.90
13256;DHT22;37913;48.370;10.930;2023-02-15T04:01:57;-2.00;99.90
13256;DHT22;37913;48.370;10.930;2023-02-15T04:04:34;-1.90;99.90
13256;DHT22;37913;48.370;10.930;2023-02-15T04:07:04;-1.90;99.90
13256;DHT22;37913;48.370;10.930;2023-02-15T04:09:32;-2.10;99.90
13256;DHT22;37913;48.370;10.930;2023-02-15T04:12:16;-2.10;99.90
13256;DHT22;37913;48.370;10.930;2023-02-15T04:14:43;-2.10;99.90
13256;DHT22;37913;48.370;10.930;2023-02-15T04:17:28;-2.00;99.90
13256;DHT22;37913;48.370;10.930;2023-02-15T04:19:55;-1.90;99.90
13256;DHT22;37913;48.370;10.930;2023-02-15T04:22:41;-1.80;99.90
13256;DHT22;37913;48.370;10.930;2023-02-15T04:25:25;-1.80;99.90
13256;DHT22;37913;48.370;10.930;2023-02-15T04:27:53;-1.80;99.90
13256;DHT22;37913;48.370;10.930;2023-02-15T04:30:23;-1.80;99.90
13256;DHT22;37913;48.370;10.930;2023-02-15T04:32:50;-1.80;99.90
13256;DHT22;37913;48.370;10.930;2023-02-15T04:35:17;-0.50;99.90
13256;DHT22;37913;48.370;10.930;2023-02-15T04:37:46;-1.90;99.90
13256;DHT22;37913;48.370;10.930;2023-02-15T04:40:14;-1.10;99.90
13256;DHT22;37913;48.370;10.930;2023-02-15T04:42:41;-1.20;99.90
13256;DHT22;37913;48.370;10.930;2023-02-15T04:45:08;-1.90;99.90
13256;DHT22;37913;48.370;10.930;2023-02-15T04:47:35;-1.80;99.90
13256;DHT22;37913;48.370;10.930;2023-02-15T04:50:03;-1.90;99.90
13256;DHT22;37913;48.370;10.930;2023-02-15T04:52:30;-1.90;99.90
13256;DHT22;37913;48.370;10.930;2023-02-15T04:54:58;-2.00;99.90
13256;DHT22;37913;48.370;10.930;2023-02-15T04:57:25;-1.10;99.90
13256;DHT22;37913;48.370;10.930;2023-02-15T04:59:52;-2.00;99.90
13256;DHT22;37913;48.370;10.930;2023-02-15T05:02:19;-1.50;99.90
13256;DHT22;37913;48.370;10.930;2023-02-15T05:04:46;-1.30;99.90
13256;DHT22;37913;48.370;10.930;2023-02-15T05:07:13;-2.00;99.90
13256;DHT22;37913;48.370;10.930;2023-02-15T05:09:41;-2.00;99.90
13256;DHT22;37913;48.370;10.930;2023-02-15T05:12:09;-1.90;99.90
13256;DHT22;37913;48.370;10.930;2023-02-15T05:14:36;-2.00;99.90
13256;DHT22;37913;48.370;10.930;2023-02-15T05:17:03;-2.00;99.90
13256;DHT22;37913;48.370;10.930;2023-02-15T05:19:30;-1.80;99.90
13256;DHT22;37913;48.370;10.930;2023-02-15T05:21:58;-1.90;99.90
13256;DHT22;37913;48.370;10.930;2023-02-15T05:24:25;-2.00;99.90
13256;DHT22;37913;48.370;10.930;2023-02-15T05:27:12;-2.00;99.90
13256;DHT22;37913;48.370;10.930;2023-02-15T05:29:56;-2.00;99.90
13256;DHT22;37913;48.370;10.930;2023-02-15T05:32:24;-2.00;99.90
13256;DHT22;37913;48.370;10.930;2023-02-15T05:34:51;-2.00;99.90
13256;DHT22;37913;48.370;10.930;2023-02-15T05:37:18;-0.60;99.90
13256;DHT22;37913;48.370;10.930;2023-02-15T05:39:45;-2.00;99.90
13256;DHT22;37913;48.370;10.930;2023-02-15T05:42:13;-0.20;99.90
13256;DHT22;37913;48.370;10.930;2023-02-15T05:44:40;-2.10;99.90
13256;DHT22;37913;48.370;10.930;2023-02-15T05:47:07;-2.00;99.90
13256;DHT22;37913;48.370;10.930;2023-02-15T05:49:34;0.40;99.90
13256;DHT22;37913;48.370;10.930;2023-02-15T05:52:02;-2.00;99.90
13256;DHT22;37913;48.370;10.930;2023-02-15T05:54:29;-2.10;99.90
13256;DHT22;37913;48.370;10.930;2023-02-15T05:56:56;-2.00;99.90
13256;DHT22;37913;48.370;10.930;2023-02-15T05:59:25;-2.00;99.90
13256;DHT22;37913;48.370;10.930;2023-02-15T06:01:51;-2.10;99.90
13256;DHT22;37913;48.370;10.930;2023-02-15T06:04:19;-2.20;99.90
13256;DHT22;37913;48.370;10.930;2023-02-15T06:06:46;-2.20;99.90
13256;DHT22;37913;48.370;10.930;2023-02-15T06:09:13;-2.30;99.90
13256;DHT22;37913;48.370;10.930;2023-02-15T06:11:40;-2.20;99.90
13256;DHT22;37913;48.370;10.930;2023-02-15T06:14:07;-2.10;99.90
13256;DHT22;37913;48.370;10.930;2023-02-15T06:16:36;-2.10;99.90
13256;DHT22;37913;48.370;10.930;2023-02-15T06:19:03;-2.00;99.90
13256;DHT22;37913;48.370;10.930;2023-02-15T06:21:30;-2.10;99.90
13256;DHT22;37913;48.370;10.930;2023-02-15T06:23:57;0.80;99.90
13256;DHT22;37913;48.370;10.930;2023-02-15T06:26:24;-2.20;99.90
13256;DHT22;37913;48.370;10.930;2023-02-15T06:28:51;-2.20;99.90
13256;DHT22;37913;48.370;10.930;2023-02-15T06:31:18;-1.60;99.90
13256;DHT22;37913;48.370;10.930;2023-02-15T06:33:47;-2.30;99.90
13256;DHT22;37913;48.370;10.930;2023-02-15T06:36:16;-2.20;99.90
13256;DHT22;37913;48.370;10.930;2023-02-15T06:38:43;-2.20;99.90
13256;DHT22;37913;48.370;10.930;2023-02-15T06:41:10;-2.30;99.90
13256;DHT22;37913;48.370;10.930;2023-02-15T06:43:40;-2.20;99.90
13256;DHT22;37913;48.370;10.930;2023-02-15T06:46:09;-0.60;99.90
13256;DHT22;37913;48.370;10.930;2023-02-15T06:48:36;-2.30;99.90
13256;DHT22;37913;48.370;10.930;2023-02-15T06:51:04;-2.30;99.90
13256;DHT22;37913;48.370;10.930;2023-02-15T06:53:31;-2.20;99.90
13256;DHT22;37913;48.370;10.930;2023-02-15T06:56:00;-2.20;99.90
13256;DHT22;37913;48.370;10.930;2023-02-15T06:58:31;-0.90;99.90
13256;DHT22;37913;48.370;10.930;2023-02-15T07:00:59;-2.20;99.90
13256;DHT22;37913;48.370;10.930;2023-02-15T07:03:25;-2.30;99.90
13256;DHT22;37913;48.370;10.930;2023-02-15T07:05:54;-2.20;99.90
13256;DHT22;37913;48.370;10.930;2023-02-15T07:08:23;-2.10;99.90
13256;DHT22;37913;48.370;10.930;2023-02-15T07:10:50;-2.10;99.90
13256;DHT22;37913;48.370;10.930;2023-02-15T07:13:18;-2.30;99.90
13256;DHT22;37913;48.370;10.930;2023-02-15T07:15:44;-2.20;99.90
13256;DHT22;37913;48.370;10.930;2023-02-15T07:18:11;-0.90;99.90
13256;DHT22;37913;48.370;10.930;2023-02-15T07:20:39;-2.10;99.90
13256;DHT22;37913;48.370;10.930;2023-02-15T07:23:08;-2.00;99.90
13256;DHT22;37913;48.370;10.930;2023-02-15T07:25:36;-2.00;99.90
13256;DHT22;37913;48.370;10.930;2023-02-15T07:28:04;-1.90;99.90
13256;DHT22;37913;48.370;10.930;2023-02-15T07:30:40;-1.90;99.90
13256;DHT22;37913;48.370;10.930;2023-02-15T07:33:09;-2.10;99.90
13256;DHT22;37913;48.370;10.930;2023-02-15T07:35:58;-2.10;99.90
13256;DHT22;37913;48.370;10.930;2023-02-15T07:38:27;-2.00;99.90
13256;DHT22;37913;48.370;10.930;2023-02-15T07:40:59;-1.70;99.90
13256;DHT22;37913;48.370;10.930;2023-02-15T07:43:26;-1.60;99.90
13256;DHT22;37913;48.370;10.930;2023-02-15T07:45:54;-1.50;99.90
13256;DHT22;37913;48.370;10.930;2023-02-15T07:48:21;-1.50;99.90
13256;DHT22;37913;48.370;10.930;2023-02-15T07:50:48;-1.20;99.90
13256;DHT22;37913;48.370;10.930;2023-02-15T07:53:15;-1.90;99.90
13256;DHT22;37913;48.370;10.930;2023-02-15T07:55:41;0.50;99.90
13256;DHT22;37913;48.370;10.930;2023-02-15T07:58:10;-1.70;99.90
13256;DHT22;37913;48.370;10.930;2023-02-15T08:00:37;-1.60;99.90
13256;DHT22;37913;48.370;10.930;2023-02-15T08:03:18;-1.30;99.90
13256;DHT22;37913;48.370;10.930;2023-02-15T08:05:45;-0.60;99.90
13256;DHT22;37913;48.370;10.930;2023-02-15T08:08:12;-0.80;99.90
13256;DHT22;37913;48.370;10.930;2023-02-15T08:10:58;-1.10;99.90
13256;DHT22;37913;48.370;10.930;2023-02-15T08:13:45;-0.80;99.90
13256;DHT22;37913;48.370;10.930;2023-02-15T08:16:22;-0.30;99.90
13256;DHT22;37913;48.370;10.930;2023-02-15T08:18:50;-1.00;99.90
13256;DHT22;37913;48.370;10.930;2023-02-15T08:21:19;-0.70;99.90
13256;DHT22;37913;48.370;10.930;2023-02-15T08:23:47;-0.90;99.90
13256;DHT22;37913;48.370;10.930;2023-02-15T08:26:15;-0.90;99.90
13256;DHT22;37913;48.370;10.930;2023-02-15T08:28:42;-0.20;99.90
13256;DHT22;37913;48.370;10.930;2023-02-15T08:31:12;-1.20;99.90
13256;DHT22;37913;48.370;10.930;2023-02-15T08:33:41;0.70;99.90
13256;DHT22;37913;48.370;10.930;2023-02-15T08:36:10;-0.70;99.90
13256;DHT22;37913;48.370;10.930;2023-02-15T08:38:40;-0.90;99.90
13256;DHT22;37913;48.370;10.930;2023-02-15T08:41:12;-1.00;99.90
13256;DHT22;37913;48.370;10.930;2023-02-15T08:43:48;-1.00;99.90
13256;DHT22;37913;48.370;10.930;2023-02-15T08:46:18;-0.90;99.90
13256;DHT22;37913;48.370;10.930;2023-02-15T08:48:46;-1.00;99.90
13256;DHT22;37913;48.370;10.930;2023-02-15T08:51:15;-0.90;99.90
13256;DHT22;37913;48.370;10.930;2023-02-15T08:53:47;-0.70;99.90
13256;DHT22;37913;48.370;10.930;2023-02-15T08:56:19;-0.50;99.90
13256;DHT22;37913;48.370;10.930;2023-02-15T08:58:55;3.30;99.90
13256;DHT22;37913;48.370;10.930;2023-02-15T09:01:27;1.00;99.90
13256;DHT22;37913;48.370;10.930;2023-02-15T09:03:59;-1.60;99.90
13256;DHT22;37913;48.370;10.930;2023-02-15T09:06:28;0.70;99.90
13256;DHT22;37913;48.370;10.930;2023-02-15T09:08:57;2.20;99.90
13256;DHT22;37913;48.370;10.930;2023-02-15T09:11:28;0.80;99.90
13256;DHT22;37913;48.370;10.930;2023-02-15T09:14:01;0.10;99.90
13256;DHT22;37913;48.370;10.930;2023-02-15T09:16:38;1.30;99.90
13256;DHT22;37913;48.370;10.930;2023-02-15T09:19:06;-0.10;99.90
13256;DHT22;37913;48.370;10.930;2023-02-15T09:21:41;2.70;99.90
13256;DHT22;37913;48.370;10.930;2023-02-15T09:24:09;0.40;99.90
13256;DHT22;37913;48.370;10.930;2023-02-15T09:26:38;0.50;99.90
13256;DHT22;37913;48.370;10.930;2023-02-15T09:29:06;0.90;99.90
13256;DHT22;37913;48.370;10.930;2023-02-15T09:31:39;3.40;99.90
13256;DHT22;37913;48.370;10.930;2023-02-15T09:34:10;0.40;99.90
13256;DHT22;37913;48.370;10.930;2023-02-15T09:36:38;2.50;99.90
13256;DHT22;37913;48.370;10.930;2023-02-15T09:39:23;2.30;99.90
13256;DHT22;37913;48.370;10.930;2023-02-15T09:42:09;0.60;99.90
13256;DHT22;37913;48.370;10.930;2023-02-15T09:45:00;0.80;99.90
13256;DHT22;37913;48.370;10.930;2023-02-15T09:47:44;1.10;99.90
13256;DHT22;37913;48.370;10.930;2023-02-15T09:50:17;1.20;99.90
13256;DHT22;37913;48.370;10.930;2023-02-15T09:53:03;1.30;99.90
13256;DHT22;37913;48.370;10.930;2023-02-15T09:55:46;1.60;99.90
13256;DHT22;37913;48.370;10.930;2023-02-15T09:58:20;1.90;99.90
13256;DHT22;37913;48.370;10.930;2023-02-15T10:00:56;1.80;99.90
13256;DHT22;37913;48.370;10.930;2023-02-15T10:03:41;2.30;99.90
13256;DHT22;37913;48.370;10.930;2023-02-15T10:06:32;2.80;99.90
13256;DHT22;37913;48.370;10.930;2023-02-15T10:09:34;3.90;99.90
13256;DHT22;37913;48.370;10.930;2023-02-15T10:12:09;3.70;99.90
13256;DHT22;37913;48.370;10.930;2023-02-15T10:14:55;3.60;99.90
13256;DHT22;37913;48.370;10.930;2023-02-15T10:17:36;3.70;99.90
13256;DHT22;37913;48.370;10.930;2023-02-15T10:20:19;5.10;99.90
13256;DHT22;37913;48.370;10.930;2023-02-15T10:25:45;4.00;99.90
13256;DHT22;37913;48.370;10.930;2023-02-15T10:28:17;5.70;99.90
13256;DHT22;37913;48.370;10.930;2023-02-15T10:30:47;4.00;99.90
13256;DHT22;37913;48.370;10.930;2023-02-15T10:33:36;4.00;99.90
13256;DHT22;37913;48.370;10.930;2023-02-15T10:36:16;4.40;99.90
13256;DHT22;37913;48.370;10.930;2023-02-15T10:38:51;5.20;99.90
13256;DHT22;37913;48.370;10.930;2023-02-15T10:41:30;4.80;99.90
13256;DHT22;37913;48.370;10.930;2023-02-15T10:44:20;5.50;99.90
13256;DHT22;37913;48.370;10.930;2023-02-15T10:47:11;3.80;99.90
13256;DHT22;37913;48.370;10.930;2023-02-15T10:50:13;5.00;99.90
13256;DHT22;37913;48.370;10.930;2023-02-15T10:52:58;8.90;99.90
13256;DHT22;37913;48.370;10.930;2023-02-15T10:55:40;13.10;99.90
13256;DHT22;37913;48.370;10.930;2023-02-15T10:58:17;13.90;99.90
13256;DHT22;37913;48.370;10.930;2023-02-15T11:00:51;13.30;99.90
13256;DHT22;37913;48.370;10.930;2023-02-15T11:06:00;13.40;99.90
13256;DHT22;37913;48.370;10.930;2023-02-15T11:08:34;12.20;99.90
13256;DHT22;37913;48.370;10.930;2023-02-15T11:11:04;10.00;99.90
13256;DHT22;37913;48.370;10.930;2023-02-15T11:13:35;10.00;99.90
13256;DHT22;37913;48.370;10.930;2023-02-15T11:16:07;9.70;99.90
13256;DHT22;37913;48.370;10.930;2023-02-15T11:18:38;10.60;99.90
13256;DHT22;37913;48.370;10.930;2023-02-15T11:21:09;14.30;99.90
13256;DHT22;37913;48.370;10.930;2023-02-15T11:23:42;12.70;99.90
13256;DHT22;37913;48.370;10.930;2023-02-15T11:26:14;11.20;99.90
13256;DHT22;37913;48.370;10.930;2023-02-15T11:28:45;9.50;99.90
13256;DHT22;37913;48.370;10.930;2023-02-15T11:31:17;9.00;99.90
13256;DHT22;37913;48.370;10.930;2023-02-15T11:33:46;9.20;99.90
13256;DHT22;37913;48.370;10.930;2023-02-15T11:36:17;10.10;99.90
13256;DHT22;37913;48.370;10.930;2023-02-15T11:38:49;10.10;99.90
13256;DHT22;37913;48.370;10.930;2023-02-15T11:41:19;11.20;99.90
13256;DHT22;37913;48.370;10.930;2023-02-15T11:43:54;10.40;99.90
13256;DHT22;37913;48.370;10.930;2023-02-15T11:46:23;11.00;99.90
13256;DHT22;37913;48.370;10.930;2023-02-15T11:48:50;12.60;99.90
13256;DHT22;37913;48.370;10.930;2023-02-15T11:51:19;13.70;99.90
13256;DHT22;37913;48.370;10.930;2023-02-15T11:53:49;14.70;99.90
13256;DHT22;37913;48.370;10.930;2023-02-15T11:56:18;13.90;99.90
13256;DHT22;37913;48.370;10.930;2023-02-15T11:58:48;15.50;99.90
13256;DHT22;37913;48.370;10.930;2023-02-15T12:01:20;14.70;99.90
13256;DHT22;37913;48.370;10.930;2023-02-15T12:03:51;15.10;99.90
13256;DHT22;37913;48.370;10.930;2023-02-15T12:06:26;13.90;99.90
13256;DHT22;37913;48.370;10.930;2023-02-15T12:09:03;13.70;99.90
13256;DHT22;37913;48.370;10.930;2023-02-15T12:11:35;15.50;99.90
13256;DHT22;37913;48.370;10.930;2023-02-15T12:14:04;17.20;99.00
13256;DHT22;37913;48.370;10.930;2023-02-15T12:16:40;19.40;97.40
13256;DHT22;37913;48.370;10.930;2023-02-15T12:19:24;21.00;93.10
13256;DHT22;37913;48.370;10.930;2023-02-15T12:21:53;22.70;92.40
13256;DHT22;37913;48.370;10.930;2023-02-15T12:24:25;24.90;83.30
13256;DHT22;37913;48.370;10.930;2023-02-15T12:26:58;23.70;79.70
13256;DHT22;37913;48.370;10.930;2023-02-15T12:29:29;21.90;84.90
13256;DHT22;37913;48.370;10.930;2023-02-15T12:31:57;25.70;80.20
13256;DHT22;37913;48.370;10.930;2023-02-15T12:34:28;28.30;72.00
13256;DHT22;37913;48.370;10.930;2023-02-15T12:37:00;30.30;67.50
13256;DHT22;37913;48.370;10.930;2023-02-15T12:39:30;31.80;64.10
13256;DHT22;37913;48.370;10.930;2023-02-15T12:42:01;31.10;59.20
13256;DHT22;37913;48.370;10.930;2023-02-15T12:44:31;32.60;56.00
13256;DHT22;37913;48.370;10.930;2023-02-15T12:47:00;31.60;56.00
13256;DHT22;37913;48.370;10.930;2023-02-15T12:49:28;33.40;55.20
13256;DHT22;37913;48.370;10.930;2023-02-15T12:51:57;31.20;52.90
13256;DHT22;37913;48.370;10.930;2023-02-15T12:54:38;30.90;53.00
13256;DHT22;37913;48.370;10.930;2023-02-15T12:57:30;31.30;53.30
13256;DHT22;37913;48.370;10.930;2023-02-15T12:59:59;32.30;51.20
13256;DHT22;37913;48.370;10.930;2023-02-15T13:02:30;33.40;50.80
13256;DHT22;37913;48.370;10.930;2023-02-15T13:05:10;32.90;50.10
13256;DHT22;37913;48.370;10.930;2023-02-15T13:07:45;34.10;49.10
13256;DHT22;37913;48.370;10.930;2023-02-15T13:10:23;33.50;49.40
13256;DHT22;37913;48.370;10.930;2023-02-15T13:12:52;34.40;48.20
13256;DHT22;37913;48.370;10.930;2023-02-15T13:15:34;35.40;46.90
13256;DHT22;37913;48.370;10.930;2023-02-15T13:18:03;34.00;46.50
13256;DHT22;37913;48.370;10.930;2023-02-15T13:20:32;34.60;46.40
13256;DHT22;37913;48.370;10.930;2023-02-15T13:23:04;35.30;45.10
13256;DHT22;37913;48.370;10.930;2023-02-15T13:25:40;34.10;45.90
13256;DHT22;37913;48.370;10.930;2023-02-15T13:28:14;34.10;45.20
13256;DHT22;37913;48.370;10.930;2023-02-15T13:30:45;34.40;45.30
13256;DHT22;37913;48.370;10.930;2023-02-15T13:33:17;34.90;44.60
13256;DHT22;37913;48.370;10.930;2023-02-15T13:35:51;35.20;44.50
13256;DHT22;37913;48.370;10.930;2023-02-15T13:38:49;35.40;43.20
13256;DHT22;37913;48.370;10.930;2023-02-15T13:41:29;34.10;44.30
13256;DHT22;37913;48.370;10.930;2023-02-15T13:44:07;33.90;43.90
13256;DHT22;37913;48.370;10.930;2023-02-15T13:46:52;34.60;43.20
13256;DHT22;37913;48.370;10.930;2023-02-15T13:49:38;34.40;43.00
13256;DHT22;37913;48.370;10.930;2023-02-15T13:52:15;34.30;43.60
13256;DHT22;37913;48.370;10.930;2023-02-15T13:55:03;35.00;43.10
13256;DHT22;37913;48.370;10.930;2023-02-15T13:58:02;34.60;42.50
13256;DHT22;37913;48.370;10.930;2023-02-15T14:00:42;33.90;43.20
13256;DHT22;37913;48.370;10.930;2023-02-15T14:03:24;34.00;43.40
13256;DHT22;37913;48.370;10.930;2023-02-15T14:06:14;32.80;44.20
13256;DHT22;37913;48.370;10.930;2023-02-15T14:08:58;31.70;44.40
13256;DHT22;37913;48.370;10.930;2023-02-15T14:11:35;32.70;44.20
13256;DHT22;37913;48.370;10.930;2023-02-15T14:14:31;33.20;44.00
13256;DHT22;37913;48.370;10.930;2023-02-15T14:17:12;32.90;44.40
13256;DHT22;37913;48.370;10.930;2023-02-15T14:19:45;34.00;43.40
13256;DHT22;37913;48.370;10.930;2023-02-15T14:22:22;34.70;43.00
13256;DHT22;37913;48.370;10.930;2023-02-15T14:25:02;31.80;44.40
13256;DHT22;37913;48.370;10.930;2023-02-15T14:27:44;29.30;46.20
13256;DHT22;37913;48.370;10.930;2023-02-15T14:30:18;30.70;45.90
13256;DHT22;37913;48.370;10.930;2023-02-15T14:32:50;31.60;45.40
13256;DHT22;37913;48.370;10.930;2023-02-15T14:35:21;30.90;45.80
13256;DHT22;37913;48.370;10.930;2023-02-15T14:37:52;31.10;46.30
13256;DHT22;37913;48.370;10.930;2023-02-15T14:40:33;30.90;46.20
13256;DHT22;37913;48.370;10.930;2023-02-15T14:43:25;31.80;45.40
13256;DHT22;37913;48.370;10.930;2023-02-15T14:46:01;31.70;45.40
13256;DHT22;37913;48.370;10.930;2023-02-15T14:48:38;31.30;46.00
13256;DHT22;37913;48.370;10.930;2023-02-15T14:51:07;31.30;45.70
13256;DHT22;37913;48.370;10.930;2023-02-15T14:53:38;28.70;47.00
13256;DHT22;37913;48.370;10.930;2023-02-15T14:56:21;27.90;48.60
13256;DHT22;37913;48.370;10.930;2023-02-15T14:59:00;27.90;48.70
13256;DHT22;37913;48.370;10.930;2023-02-15T15:01:30;27.50;49.10
13256;DHT22;37913;48.370;10.930;2023-02-15T15:04:02;27.80;49.10
13256;DHT22;37913;48.370;10.930;2023-02-15T15:06:31;27.70;50.00
13256;DHT22;37913;48.370;10.930;2023-02-15T15:09:09;27.50;49.20
13256;DHT22;37913;48.370;10.930;2023-02-15T15:11:42;26.70;49.70
13256;DHT22;37913;48.370;10.930;2023-02-15T15:14:11;26.40;50.00
13256;DHT22;37913;48.370;10.930;2023-02-15T15:17:00;26.80;49.90
13256;DHT22;37913;48.370;10.930;2023-02-15T15:22:41;25.20;52.10
13256;DHT22;37913;48.370;10.930;2023-02-15T15:25:42;25.20;52.10
13256;DHT22;37913;48.370;10.930;2023-02-15T15:31:20;24.30;53.60
13256;DHT22;37913;48.370;10.930;2023-02-15T15:34:17;23.40;54.60
13256;DHT22;37913;48.370;10.930;2023-02-15T15:40:21;21.30;57.70
13256;DHT22;37913;48.370;10.930;2023-02-15T15:46:31;17.20;71.10
13256;DHT22;37913;48.370;10.930;2023-02-15T15:49:02;14.80;82.40
13256;DHT22;37913;48.370;10.930;2023-02-15T15:51:40;13.40;88.90
13256;DHT22;37913;48.370;10.930;2023-02-15T15:54:15;12.30;92.60
13256;DHT22;37913;48.370;10.930;2023-02-15T15:56:48;11.50;94.70
13256;DHT22;37913;48.370;10.930;2023-02-15T15:59:19;10.80;96.70
13256;DHT22;37913;48.370;10.930;2023-02-15T16:01:48;10.10;98.80
13256;DHT22;37913;48.370;10.930;2023-02-15T16:04:23;9.50;99.90
13256;DHT22;37913;48.370;10.930;2023-02-15T16:06:52;8.80;99.90
13256;DHT22;37913;48.370;10.930;2023-02-15T16:09:22;8.30;99.90
13256;DHT22;37913;48.370;10.930;2023-02-15T16:11:51;7.90;99.90
13256;DHT22;37913;48.370;10.930;2023-02-15T16:14:26;7.50;99.90